sensor_id;sensor_type;location;lat;lon;timestamp;temperature;humidity
43151;DHT22;28755;51.478;5.702;2024-03-22T00:01:44;12.10;99.90
43151;DHT22;28755;51.478;5.702;2024-03-22T00:04:10;12.20;99.90
43151;DHT22;28755;51.478;5.702;2024-03-22T00:06:36;12.20;99.90
43151;DHT22;28755;51.478;5.702;2024-03-22T00:09:01;12.20;99.90
43151;DHT22;28755;51.478;5.702;2024-03-22T00:11:27;12.10;99.90
43151;DHT22;28755;51.478;5.702;2024-03-22T00:13:52;12.20;99.90
43151;DHT22;28755;51.478;5.702;2024-03-22T00:16:18;12.10;99.90
43151;DHT22;28755;51.478;5.702;2024-03-22T00:18:44;12.20;99.90
43151;DHT22;28755;51.478;5.702;2024-03-22T00:21:09;12.10;99.90
43151;DHT22;28755;51.478;5.702;2024-03-22T00:23:35;12.10;99.90
43151;DHT22;28755;51.478;5.702;2024-03-22T00:26:01;12.20;99.90
43151;DHT22;28755;51.478;5.702;2024-03-22T00:28:26;12.10;99.90
43151;DHT22;28755;51.478;5.702;2024-03-22T00:30:52;12.20;99.90
43151;DHT22;28755;51.478;5.702;2024-03-22T00:33:17;12.20;99.90
43151;DHT22;28755;51.478;5.702;2024-03-22T00:35:43;12.20;99.90
43151;DHT22;28755;51.478;5.702;2024-03-22T00:38:09;12.30;99.90
43151;DHT22;28755;51.478;5.702;2024-03-22T00:40:34;12.20;99.90
43151;DHT22;28755;51.478;5.702;2024-03-22T00:43:00;12.10;99.90
43151;DHT22;28755;51.478;5.702;2024-03-22T00:45:26;12.20;99.90
43151;DHT22;28755;51.478;5.702;2024-03-22T00:47:51;12.10;99.90
43151;DHT22;28755;51.478;5.702;2024-03-22T00:50:17;12.20;99.90
43151;DHT22;28755;51.478;5.702;2024-03-22T00:52:42;12.20;99.90
43151;DHT22;28755;51.478;5.702;2024-03-22T00:55:08;12.10;99.90
43151;DHT22;28755;51.478;5.702;2024-03-22T00:57:34;12.30;99.90
43151;DHT22;28755;51.478;5.702;2024-03-22T00:59:59;12.10;99.90
43151;DHT22;28755;51.478;5.702;2024-03-22T01:02:25;12.30;99.90
43151;DHT22;28755;51.478;5.702;2024-03-22T01:04:50;12.30;99.90
43151;DHT22;28755;51.478;5.702;2024-03-22T01:07:16;12.30;99.90
43151;DHT22;28755;51.478;5.702;2024-03-22T01:09:42;12.20;99.90
43151;DHT22;28755;51.478;5.702;2024-03-22T01:12:09;12.30;99.90
43151;DHT22;28755;51.478;5.702;2024-03-22T01:14:35;12.30;99.90
43151;DHT22;28755;51.478;5.702;2024-03-22T01:17:01;12.30;99.90
43151;DHT22;28755;51.478;5.702;2024-03-22T01:19:26;12.30;99.90
43151;DHT22;28755;51.478;5.702;2024-03-22T01:21:52;12.20;99.90
43151;DHT22;28755;51.478;5.702;2024-03-22T01:24:17;12.30;99.90
43151;DHT22;28755;51.478;5.702;2024-03-22T01:26:43;12.40;99.90
43151;DHT22;28755;51.478;5.702;2024-03-22T01:29:08;12.30;99.90
43151;DHT22;28755;51.478;5.702;2024-03-22T01:31:34;12.30;99.90
43151;DHT22;28755;51.478;5.702;2024-03-22T01:33:59;12.30;99.90
43151;DHT22;28755;51.478;5.702;2024-03-22T01:36:25;12.30;99.90
43151;DHT22;28755;51.478;5.702;2024-03-22T01:38:51;12.30;99.90
43151;DHT22;28755;51.478;5.702;2024-03-22T01:41:16;12.30;99.90
43151;DHT22;28755;51.478;5.702;2024-03-22T01:43:43;12.30;99.90
43151;DHT22;28755;51.478;5.702;2024-03-22T01:46:09;12.30;99.90
43151;DHT22;28755;51.478;5.702;2024-03-22T01:48:34;12.30;99.90
43151;DHT22;28755;51.478;5.702;2024-03-22T01:51:02;12.30;99.90
43151;DHT22;28755;51.478;5.702;2024-03-22T01:53:29;12.30;99.90
43151;DHT22;28755;51.478;5.702;2024-03-22T01:55:54;12.30;99.90
43151;DHT22;28755;51.478;5.702;2024-03-22T01:58:21;12.30;99.90
43151;DHT22;28755;51.478;5.702;2024-03-22T02:00:47;12.40;99.90
43151;DHT22;28755;51.478;5.702;2024-03-22T02:03:13;12.30;99.90
43151;DHT22;28755;51.478;5.702;2024-03-22T02:05:38;12.40;99.90
43151;DHT22;28755;51.478;5.702;2024-03-22T02:08:04;12.40;99.90
43151;DHT22;28755;51.478;5.702;2024-03-22T02:10:30;12.40;99.90
43151;DHT22;28755;51.478;5.702;2024-03-22T02:12:56;12.40;99.90
43151;DHT22;28755;51.478;5.702;2024-03-22T02:15:22;12.30;99.90
43151;DHT22;28755;51.478;5.702;2024-03-22T02:17:47;12.30;99.90
43151;DHT22;28755;51.478;5.702;2024-03-22T02:20:13;12.30;99.90
43151;DHT22;28755;51.478;5.702;2024-03-22T02:22:38;12.20;99.90
43151;DHT22;28755;51.478;5.702;2024-03-22T02:25:04;12.30;99.90
43151;DHT22;28755;51.478;5.702;2024-03-22T02:27:30;12.30;99.90
43151;DHT22;28755;51.478;5.702;2024-03-22T02:29:55;12.30;99.90
43151;DHT22;28755;51.478;5.702;2024-03-22T02:32:21;12.30;99.90
43151;DHT22;28755;51.478;5.702;2024-03-22T02:34:47;12.20;99.90
43151;DHT22;28755;51.478;5.702;2024-03-22T02:37:12;12.20;99.90
43151;DHT22;28755;51.478;5.702;2024-03-22T02:39:38;12.10;99.90
43151;DHT22;28755;51.478;5.702;2024-03-22T02:42:03;12.20;99.90
43151;DHT22;28755;51.478;5.702;2024-03-22T02:44:29;12.20;99.90
43151;DHT22;28755;51.478;5.702;2024-03-22T02:46:55;12.20;99.90
43151;DHT22;28755;51.478;5.702;2024-03-22T02:49:20;12.10;99.90
43151;DHT22;28755;51.478;5.702;2024-03-22T02:51:46;12.10;99.90
43151;DHT22;28755;51.478;5.702;2024-03-22T02:54:11;12.10;99.90
43151;DHT22;28755;51.478;5.702;2024-03-22T02:56:37;12.20;99.90
43151;DHT22;28755;51.478;5.702;2024-03-22T02:59:02;12.20;99.90
43151;DHT22;28755;51.478;5.702;2024-03-22T03:01:28;12.20;99.90
43151;DHT22;28755;51.478;5.702;2024-03-22T03:03:54;12.20;99.90
43151;DHT22;28755;51.478;5.702;2024-03-22T03:06:19;12.20;99.90
43151;DHT22;28755;51.478;5.702;2024-03-22T03:08:45;12.10;99.90
43151;DHT22;28755;51.478;5.702;2024-03-22T03:11:11;12.20;99.90
43151;DHT22;28755;51.478;5.702;2024-03-22T03:13:37;12.20;99.90
43151;DHT22;28755;51.478;5.702;2024-03-22T03:16:03;12.30;99.90
43151;DHT22;28755;51.478;5.702;2024-03-22T03:18:28;12.20;99.90
43151;DHT22;28755;51.478;5.702;2024-03-22T03:20:54;12.20;99.90
43151;DHT22;28755;51.478;5.702;2024-03-22T03:23:19;12.30;99.90
43151;DHT22;28755;51.478;5.702;2024-03-22T03:25:46;12.30;99.90
43151;DHT22;28755;51.478;5.702;2024-03-22T03:28:11;12.30;99.90
43151;DHT22;28755;51.478;5.702;2024-03-22T03:30:38;12.20;99.90
43151;DHT22;28755;51.478;5.702;2024-03-22T03:33:04;12.20;99.90
43151;DHT22;28755;51.478;5.702;2024-03-22T03:35:30;12.20;99.90
43151;DHT22;28755;51.478;5.702;2024-03-22T03:37:55;12.50;99.90
43151;DHT22;28755;51.478;5.702;2024-03-22T03:40:21;12.20;99.90
43151;DHT22;28755;51.478;5.702;2024-03-22T03:42:53;12.20;99.90
43151;DHT22;28755;51.478;5.702;2024-03-22T03:45:19;12.30;99.90
43151;DHT22;28755;51.478;5.702;2024-03-22T03:47:44;12.20;99.90
43151;DHT22;28755;51.478;5.702;2024-03-22T03:50:10;12.20;99.90
43151;DHT22;28755;51.478;5.702;2024-03-22T03:52:35;12.20;99.90
43151;DHT22;28755;51.478;5.702;2024-03-22T03:55:01;12.10;99.90
43151;DHT22;28755;51.478;5.702;2024-03-22T03:57:27;12.20;99.90
43151;DHT22;28755;51.478;5.702;2024-03-22T03:59:52;12.20;99.90
43151;DHT22;28755;51.478;5.702;2024-03-22T04:02:18;12.10;99.90
43151;DHT22;28755;51.478;5.702;2024-03-22T04:04:43;12.10;99.90
43151;DHT22;28755;51.478;5.702;2024-03-22T04:07:09;12.20;99.90
43151;DHT22;28755;51.478;5.702;2024-03-22T04:09:34;12.10;99.90
43151;DHT22;28755;51.478;5.702;2024-03-22T04:12:00;12.20;99.90
43151;DHT22;28755;51.478;5.702;2024-03-22T04:14:26;12.10;99.90
43151;DHT22;28755;51.478;5.702;2024-03-22T04:16:52;12.10;99.90
43151;DHT22;28755;51.478;5.702;2024-03-22T04:19:20;12.10;99.90
43151;DHT22;28755;51.478;5.702;2024-03-22T04:21:46;12.10;99.90
43151;DHT22;28755;51.478;5.702;2024-03-22T04:24:11;12.10;99.90
43151;DHT22;28755;51.478;5.702;2024-03-22T04:26:37;12.10;99.90
43151;DHT22;28755;51.478;5.702;2024-03-22T04:29:03;12.10;99.90
43151;DHT22;28755;51.478;5.702;2024-03-22T04:31:28;12.00;99.90
43151;DHT22;28755;51.478;5.702;2024-03-22T04:33:54;12.10;99.90
43151;DHT22;28755;51.478;5.702;2024-03-22T04:36:19;12.00;99.90
43151;DHT22;28755;51.478;5.702;2024-03-22T04:38:45;12.00;99.90
43151;DHT22;28755;51.478;5.702;2024-03-22T04:41:10;12.00;99.90
43151;DHT22;28755;51.478;5.702;2024-03-22T04:43:37;12.10;99.90
43151;DHT22;28755;51.478;5.702;2024-03-22T04:46:02;12.10;99.90
43151;DHT22;28755;51.478;5.702;2024-03-22T04:48:28;12.10;99.90
43151;DHT22;28755;51.478;5.702;2024-03-22T04:50:53;12.00;99.90
43151;DHT22;28755;51.478;5.702;2024-03-22T04:53:20;12.00;99.90
43151;DHT22;28755;51.478;5.702;2024-03-22T04:55:49;12.00;99.90
43151;DHT22;28755;51.478;5.702;2024-03-22T04:58:19;12.00;99.90
43151;DHT22;28755;51.478;5.702;2024-03-22T05:00:45;12.00;99.90
43151;DHT22;28755;51.478;5.702;2024-03-22T05:03:11;12.00;99.90
43151;DHT22;28755;51.478;5.702;2024-03-22T05:05:37;12.00;99.90
43151;DHT22;28755;51.478;5.702;2024-03-22T05:08:04;12.00;99.90
43151;DHT22;28755;51.478;5.702;2024-03-22T05:10:30;12.00;99.90
43151;DHT22;28755;51.478;5.702;2024-03-22T05:12:56;12.00;99.90
43151;DHT22;28755;51.478;5.702;2024-03-22T05:15:22;12.00;99.90
43151;DHT22;28755;51.478;5.702;2024-03-22T05:17:48;12.00;99.90
43151;DHT22;28755;51.478;5.702;2024-03-22T05:20:14;12.00;99.90
43151;DHT22;28755;51.478;5.702;2024-03-22T05:22:40;11.90;99.90
43151;DHT22;28755;51.478;5.702;2024-03-22T05:25:06;12.00;99.90
43151;DHT22;28755;51.478;5.702;2024-03-22T05:27:32;11.90;99.90
43151;DHT22;28755;51.478;5.702;2024-03-22T05:29:58;12.00;99.90
43151;DHT22;28755;51.478;5.702;2024-03-22T05:32:24;11.80;99.90
43151;DHT22;28755;51.478;5.702;2024-03-22T05:34:50;11.90;99.90
43151;DHT22;28755;51.478;5.702;2024-03-22T05:37:16;11.80;99.90
43151;DHT22;28755;51.478;5.702;2024-03-22T05:39:42;11.80;99.90
43151;DHT22;28755;51.478;5.702;2024-03-22T05:42:08;11.80;99.90
43151;DHT22;28755;51.478;5.702;2024-03-22T05:44:33;11.80;99.90
43151;DHT22;28755;51.478;5.702;2024-03-22T05:46:59;11.70;99.90
43151;DHT22;28755;51.478;5.702;2024-03-22T05:49:25;11.70;99.90
43151;DHT22;28755;51.478;5.702;2024-03-22T05:51:51;11.80;99.90
43151;DHT22;28755;51.478;5.702;2024-03-22T05:54:16;11.80;99.90
43151;DHT22;28755;51.478;5.702;2024-03-22T05:56:42;11.80;99.90
43151;DHT22;28755;51.478;5.702;2024-03-22T05:59:07;11.70;99.90
43151;DHT22;28755;51.478;5.702;2024-03-22T06:01:33;11.80;99.90
43151;DHT22;28755;51.478;5.702;2024-03-22T06:03:59;11.80;99.90
43151;DHT22;28755;51.478;5.702;2024-03-22T06:06:25;11.80;99.90
43151;DHT22;28755;51.478;5.702;2024-03-22T06:08:54;11.80;99.90
43151;DHT22;28755;51.478;5.702;2024-03-22T06:11:22;11.90;99.90
43151;DHT22;28755;51.478;5.702;2024-03-22T06:13:48;11.90;99.90
43151;DHT22;28755;51.478;5.702;2024-03-22T06:19:38;11.80;99.90
43151;DHT22;28755;51.478;5.702;2024-03-22T06:22:04;11.90;99.90
43151;DHT22;28755;51.478;5.702;2024-03-22T06:24:29;12.00;99.90
43151;DHT22;28755;51.478;5.702;2024-03-22T06:26:55;11.90;99.90
43151;DHT22;28755;51.478;5.702;2024-03-22T06:29:21;11.90;99.90
43151;DHT22;28755;51.478;5.702;2024-03-22T06:31:47;11.90;99.90
43151;DHT22;28755;51.478;5.702;2024-03-22T06:34:12;11.90;99.90
43151;DHT22;28755;51.478;5.702;2024-03-22T06:36:38;11.90;99.90
43151;DHT22;28755;51.478;5.702;2024-03-22T06:39:04;11.90;99.90
43151;DHT22;28755;51.478;5.702;2024-03-22T06:41:32;12.00;99.90
43151;DHT22;28755;51.478;5.702;2024-03-22T06:43:58;11.90;99.90
43151;DHT22;28755;51.478;5.702;2024-03-22T06:46:23;12.00;99.90
43151;DHT22;28755;51.478;5.702;2024-03-22T06:48:50;12.10;99.90
43151;DHT22;28755;51.478;5.702;2024-03-22T06:51:16;12.10;99.90
43151;DHT22;28755;51.478;5.702;2024-03-22T06:53:42;12.20;99.90
43151;DHT22;28755;51.478;5.702;2024-03-22T06:56:07;12.10;99.90
43151;DHT22;28755;51.478;5.702;2024-03-22T06:58:37;12.10;99.90
43151;DHT22;28755;51.478;5.702;2024-03-22T07:01:03;12.10;99.90
43151;DHT22;28755;51.478;5.702;2024-03-22T07:03:29;12.20;99.90
43151;DHT22;28755;51.478;5.702;2024-03-22T07:05:55;12.30;99.90
43151;DHT22;28755;51.478;5.702;2024-03-22T07:08:23;12.40;99.90
43151;DHT22;28755;51.478;5.702;2024-03-22T07:10:48;12.40;99.90
43151;DHT22;28755;51.478;5.702;2024-03-22T07:13:14;12.40;99.90
43151;DHT22;28755;51.478;5.702;2024-03-22T07:15:40;12.30;99.90
43151;DHT22;28755;51.478;5.702;2024-03-22T07:18:05;12.20;99.90
43151;DHT22;28755;51.478;5.702;2024-03-22T07:20:31;12.10;99.90
43151;DHT22;28755;51.478;5.702;2024-03-22T07:22:57;12.20;99.90
43151;DHT22;28755;51.478;5.702;2024-03-22T07:25:22;12.10;99.90
43151;DHT22;28755;51.478;5.702;2024-03-22T07:27:48;12.10;99.90
43151;DHT22;28755;51.478;5.702;2024-03-22T07:30:14;12.10;99.90
43151;DHT22;28755;51.478;5.702;2024-03-22T07:32:40;12.20;99.90
43151;DHT22;28755;51.478;5.702;2024-03-22T07:35:06;12.30;99.90
43151;DHT22;28755;51.478;5.702;2024-03-22T07:37:33;12.50;99.90
43151;DHT22;28755;51.478;5.702;2024-03-22T07:39:59;12.80;99.90
43151;DHT22;28755;51.478;5.702;2024-03-22T07:42:25;13.20;99.90
43151;DHT22;28755;51.478;5.702;2024-03-22T07:44:50;13.40;99.90
43151;DHT22;28755;51.478;5.702;2024-03-22T07:47:16;13.60;99.90
43151;DHT22;28755;51.478;5.702;2024-03-22T07:49:42;13.50;99.90
43151;DHT22;28755;51.478;5.702;2024-03-22T07:52:07;13.20;99.90
43151;DHT22;28755;51.478;5.702;2024-03-22T07:54:33;13.00;99.90
43151;DHT22;28755;51.478;5.702;2024-03-22T07:56:58;13.00;99.90
43151;DHT22;28755;51.478;5.702;2024-03-22T07:59:24;12.90;99.90
43151;DHT22;28755;51.478;5.702;2024-03-22T08:01:50;12.90;99.90
43151;DHT22;28755;51.478;5.702;2024-03-22T08:04:16;13.00;99.90
43151;DHT22;28755;51.478;5.702;2024-03-22T08:06:41;13.10;99.90
43151;DHT22;28755;51.478;5.702;2024-03-22T08:09:07;13.30;99.90
43151;DHT22;28755;51.478;5.702;2024-03-22T08:11:33;13.50;99.90
43151;DHT22;28755;51.478;5.702;2024-03-22T08:13:59;13.70;99.90
43151;DHT22;28755;51.478;5.702;2024-03-22T08:16:29;13.30;99.90
43151;DHT22;28755;51.478;5.702;2024-03-22T08:18:55;13.10;99.90
43151;DHT22;28755;51.478;5.702;2024-03-22T08:21:22;13.40;99.90
43151;DHT22;28755;51.478;5.702;2024-03-22T08:23:48;13.50;99.90
43151;DHT22;28755;51.478;5.702;2024-03-22T08:26:13;13.70;99.90
43151;DHT22;28755;51.478;5.702;2024-03-22T08:28:39;13.70;99.90
43151;DHT22;28755;51.478;5.702;2024-03-22T08:31:05;13.70;99.90
43151;DHT22;28755;51.478;5.702;2024-03-22T08:33:31;13.60;99.90
43151;DHT22;28755;51.478;5.702;2024-03-22T08:35:56;13.50;99.90
43151;DHT22;28755;51.478;5.702;2024-03-22T08:38:22;13.70;99.90
43151;DHT22;28755;51.478;5.702;2024-03-22T08:40:50;13.70;99.90
43151;DHT22;28755;51.478;5.702;2024-03-22T08:43:15;14.00;99.90
43151;DHT22;28755;51.478;5.702;2024-03-22T08:45:41;13.90;99.90
43151;DHT22;28755;51.478;5.702;2024-03-22T08:48:07;13.70;99.90
43151;DHT22;28755;51.478;5.702;2024-03-22T08:50:33;13.50;99.90
43151;DHT22;28755;51.478;5.702;2024-03-22T08:52:59;13.30;99.90
43151;DHT22;28755;51.478;5.702;2024-03-22T08:55:24;13.10;99.90
43151;DHT22;28755;51.478;5.702;2024-03-22T08:57:50;13.00;99.90
43151;DHT22;28755;51.478;5.702;2024-03-22T09:00:17;13.10;99.90
43151;DHT22;28755;51.478;5.702;2024-03-22T09:02:42;13.00;99.90
43151;DHT22;28755;51.478;5.702;2024-03-22T09:05:08;12.90;99.90
43151;DHT22;28755;51.478;5.702;2024-03-22T09:07:34;12.80;99.90
43151;DHT22;28755;51.478;5.702;2024-03-22T09:09:59;12.70;99.90
43151;DHT22;28755;51.478;5.702;2024-03-22T09:12:25;12.80;99.90
43151;DHT22;28755;51.478;5.702;2024-03-22T09:14:50;12.80;99.90
43151;DHT22;28755;51.478;5.702;2024-03-22T09:17:16;12.90;99.90
43151;DHT22;28755;51.478;5.702;2024-03-22T09:19:41;12.90;99.90
43151;DHT22;28755;51.478;5.702;2024-03-22T09:22:07;12.90;99.90
43151;DHT22;28755;51.478;5.702;2024-03-22T09:24:33;12.90;99.90
43151;DHT22;28755;51.478;5.702;2024-03-22T09:26:58;12.80;99.90
43151;DHT22;28755;51.478;5.702;2024-03-22T09:29:24;12.80;99.90
43151;DHT22;28755;51.478;5.702;2024-03-22T09:31:49;12.90;99.90
43151;DHT22;28755;51.478;5.702;2024-03-22T09:34:16;12.80;99.90
43151;DHT22;28755;51.478;5.702;2024-03-22T09:36:42;12.80;99.90
43151;DHT22;28755;51.478;5.702;2024-03-22T09:39:07;12.90;99.90
43151;DHT22;28755;51.478;5.702;2024-03-22T09:41:41;13.10;99.90
43151;DHT22;28755;51.478;5.702;2024-03-22T09:44:12;13.30;99.90
43151;DHT22;28755;51.478;5.702;2024-03-22T09:46:39;13.40;99.90
43151;DHT22;28755;51.478;5.702;2024-03-22T09:49:06;13.40;99.90
43151;DHT22;28755;51.478;5.702;2024-03-22T09:51:33;13.40;99.90
43151;DHT22;28755;51.478;5.702;2024-03-22T09:54:00;13.60;99.90
43151;DHT22;28755;51.478;5.702;2024-03-22T09:56:27;13.60;99.90
43151;DHT22;28755;51.478;5.702;2024-03-22T09:58:53;13.60;99.90
43151;DHT22;28755;51.478;5.702;2024-03-22T10:01:18;13.40;99.90
43151;DHT22;28755;51.478;5.702;2024-03-22T10:03:44;13.40;99.90
43151;DHT22;28755;51.478;5.702;2024-03-22T10:06:10;13.10;99.90
43151;DHT22;28755;51.478;5.702;2024-03-22T10:08:36;13.10;99.90
43151;DHT22;28755;51.478;5.702;2024-03-22T10:11:02;13.10;99.90
43151;DHT22;28755;51.478;5.702;2024-03-22T10:13:28;13.00;99.90
43151;DHT22;28755;51.478;5.702;2024-03-22T10:15:54;13.10;99.90
43151;DHT22;28755;51.478;5.702;2024-03-22T10:18:20;13.00;99.90
43151;DHT22;28755;51.478;5.702;2024-03-22T10:20:47;13.10;99.90
43151;DHT22;28755;51.478;5.702;2024-03-22T10:23:12;13.00;99.90
43151;DHT22;28755;51.478;5.702;2024-03-22T10:25:38;13.20;99.90
43151;DHT22;28755;51.478;5.702;2024-03-22T10:28:04;13.20;99.90
43151;DHT22;28755;51.478;5.702;2024-03-22T10:30:30;13.20;99.90
43151;DHT22;28755;51.478;5.702;2024-03-22T10:32:56;13.40;99.90
43151;DHT22;28755;51.478;5.702;2024-03-22T10:35:23;13.40;99.90
43151;DHT22;28755;51.478;5.702;2024-03-22T10:37:50;13.40;99.90
43151;DHT22;28755;51.478;5.702;2024-03-22T10:40:16;13.40;99.90
43151;DHT22;28755;51.478;5.702;2024-03-22T10:42:42;13.40;99.90
43151;DHT22;28755;51.478;5.702;2024-03-22T10:45:09;13.40;99.90
43151;DHT22;28755;51.478;5.702;2024-03-22T10:47:37;13.30;99.90
43151;DHT22;28755;51.478;5.702;2024-03-22T10:50:10;13.30;99.90
43151;DHT22;28755;51.478;5.702;2024-03-22T10:52:45;13.20;99.90
43151;DHT22;28755;51.478;5.702;2024-03-22T10:55:17;13.10;99.90
43151;DHT22;28755;51.478;5.702;2024-03-22T10:57:44;13.00;99.90
43151;DHT22;28755;51.478;5.702;2024-03-22T11:00:10;13.10;99.90
43151;DHT22;28755;51.478;5.702;2024-03-22T11:02:43;13.10;99.90
43151;DHT22;28755;51.478;5.702;2024-03-22T11:05:17;13.00;99.90
43151;DHT22;28755;51.478;5.702;2024-03-22T11:07:44;13.10;99.90
43151;DHT22;28755;51.478;5.702;2024-03-22T11:10:11;13.10;99.90
43151;DHT22;28755;51.478;5.702;2024-03-22T11:12:40;13.10;99.90
43151;DHT22;28755;51.478;5.702;2024-03-22T11:15:07;13.10;99.90
43151;DHT22;28755;51.478;5.702;2024-03-22T11:17:34;13.00;99.90
43151;DHT22;28755;51.478;5.702;2024-03-22T11:20:00;13.00;99.90
43151;DHT22;28755;51.478;5.702;2024-03-22T11:22:26;13.00;99.90
43151;DHT22;28755;51.478;5.702;2024-03-22T11:24:52;13.10;99.90
43151;DHT22;28755;51.478;5.702;2024-03-22T11:27:18;13.00;99.90
43151;DHT22;28755;51.478;5.702;2024-03-22T11:29:45;12.90;99.90
43151;DHT22;28755;51.478;5.702;2024-03-22T11:32:12;12.90;99.90
43151;DHT22;28755;51.478;5.702;2024-03-22T11:34:38;13.00;99.90
43151;DHT22;28755;51.478;5.702;2024-03-22T11:37:05;12.90;99.90
43151;DHT22;28755;51.478;5.702;2024-03-22T11:39:33;12.90;99.90
43151;DHT22;28755;51.478;5.702;2024-03-22T11:42:01;13.00;99.90
43151;DHT22;28755;51.478;5.702;2024-03-22T11:44:27;13.10;99.90
43151;DHT22;28755;51.478;5.702;2024-03-22T11:46:53;13.00;99.90
43151;DHT22;28755;51.478;5.702;2024-03-22T11:49:19;12.80;99.90
43151;DHT22;28755;51.478;5.702;2024-03-22T11:51:45;12.80;99.90
43151;DHT22;28755;51.478;5.702;2024-03-22T11:54:10;12.70;99.90
43151;DHT22;28755;51.478;5.702;2024-03-22T11:56:36;12.70;99.90
43151;DHT22;28755;51.478;5.702;2024-03-22T11:59:02;12.70;99.90
43151;DHT22;28755;51.478;5.702;2024-03-22T12:01:29;12.60;99.90
43151;DHT22;28755;51.478;5.702;2024-03-22T12:03:55;12.60;99.90
43151;DHT22;28755;51.478;5.702;2024-03-22T12:06:21;12.60;99.90
43151;DHT22;28755;51.478;5.702;2024-03-22T12:08:47;12.60;99.90
43151;DHT22;28755;51.478;5.702;2024-03-22T12:11:13;12.60;99.90
43151;DHT22;28755;51.478;5.702;2024-03-22T12:13:39;12.50;99.90
43151;DHT22;28755;51.478;5.702;2024-03-22T12:16:05;12.50;99.90
43151;DHT22;28755;51.478;5.702;2024-03-22T12:18:31;12.60;99.90
43151;DHT22;28755;51.478;5.702;2024-03-22T12:20:57;12.50;99.90
43151;DHT22;28755;51.478;5.702;2024-03-22T12:23:23;12.80;99.90
43151;DHT22;28755;51.478;5.702;2024-03-22T12:25:50;12.70;99.90
43151;DHT22;28755;51.478;5.702;2024-03-22T12:28:16;12.90;99.90
43151;DHT22;28755;51.478;5.702;2024-03-22T12:30:42;12.90;99.90
43151;DHT22;28755;51.478;5.702;2024-03-22T12:33:08;12.80;99.90
43151;DHT22;28755;51.478;5.702;2024-03-22T12:35:39;12.80;99.90
43151;DHT22;28755;51.478;5.702;2024-03-22T12:38:05;12.90;99.90
43151;DHT22;28755;51.478;5.702;2024-03-22T12:40:30;13.00;99.90
43151;DHT22;28755;51.478;5.702;2024-03-22T12:42:58;12.90;99.90
43151;DHT22;28755;51.478;5.702;2024-03-22T12:45:24;12.80;99.90
43151;DHT22;28755;51.478;5.702;2024-03-22T12:47:49;12.70;99.90
43151;DHT22;28755;51.478;5.702;2024-03-22T12:50:15;12.70;99.90
43151;DHT22;28755;51.478;5.702;2024-03-22T12:52:41;12.70;99.90
43151;DHT22;28755;51.478;5.702;2024-03-22T12:55:07;12.70;99.90
43151;DHT22;28755;51.478;5.702;2024-03-22T12:57:33;12.60;99.90
43151;DHT22;28755;51.478;5.702;2024-03-22T12:59:58;12.60;99.90
43151;DHT22;28755;51.478;5.702;2024-03-22T13:02:24;12.70;99.90
43151;DHT22;28755;51.478;5.702;2024-03-22T13:04:51;12.60;99.90
43151;DHT22;28755;51.478;5.702;2024-03-22T13:07:19;12.60;99.90
43151;DHT22;28755;51.478;5.702;2024-03-22T13:09:45;12.60;99.90
43151;DHT22;28755;51.478;5.702;2024-03-22T13:12:11;12.50;99.90
43151;DHT22;28755;51.478;5.702;2024-03-22T13:14:36;12.50;99.90
43151;DHT22;28755;51.478;5.702;2024-03-22T13:17:02;12.40;99.90
43151;DHT22;28755;51.478;5.702;2024-03-22T13:19:27;12.40;99.90
43151;DHT22;28755;51.478;5.702;2024-03-22T13:21:53;12.30;99.90
43151;DHT22;28755;51.478;5.702;2024-03-22T13:24:18;12.30;99.90
43151;DHT22;28755;51.478;5.702;2024-03-22T13:26:44;12.30;99.90
43151;DHT22;28755;51.478;5.702;2024-03-22T13:29:10;12.40;99.90
43151;DHT22;28755;51.478;5.702;2024-03-22T13:31:36;12.50;99.90
43151;DHT22;28755;51.478;5.702;2024-03-22T13:34:02;12.40;99.90
43151;DHT22;28755;51.478;5.702;2024-03-22T13:36:29;12.30;99.90
43151;DHT22;28755;51.478;5.702;2024-03-22T13:38:58;12.20;99.90
43151;DHT22;28755;51.478;5.702;2024-03-22T13:41:23;12.40;99.90
43151;DHT22;28755;51.478;5.702;2024-03-22T13:43:49;12.20;99.90
43151;DHT22;28755;51.478;5.702;2024-03-22T13:46:14;12.20;99.90
43151;DHT22;28755;51.478;5.702;2024-03-22T13:48:43;12.10;99.90
43151;DHT22;28755;51.478;5.702;2024-03-22T13:51:09;12.20;99.90
43151;DHT22;28755;51.478;5.702;2024-03-22T13:53:36;12.20;99.90
43151;DHT22;28755;51.478;5.702;2024-03-22T13:56:02;12.10;99.90
43151;DHT22;28755;51.478;5.702;2024-03-22T13:58:28;12.20;99.90
43151;DHT22;28755;51.478;5.702;2024-03-22T14:00:54;12.10;99.90
43151;DHT22;28755;51.478;5.702;2024-03-22T14:03:19;12.00;99.90
43151;DHT22;28755;51.478;5.702;2024-03-22T14:05:45;11.90;99.90
43151;DHT22;28755;51.478;5.702;2024-03-22T14:08:11;11.90;99.90
43151;DHT22;28755;51.478;5.702;2024-03-22T14:10:37;11.90;99.90
43151;DHT22;28755;51.478;5.702;2024-03-22T14:13:03;11.90;99.90
43151;DHT22;28755;51.478;5.702;2024-03-22T14:15:29;12.00;99.90
43151;DHT22;28755;51.478;5.702;2024-03-22T14:17:58;11.80;99.90
43151;DHT22;28755;51.478;5.702;2024-03-22T14:20:24;11.90;99.90
43151;DHT22;28755;51.478;5.702;2024-03-22T14:22:50;11.90;99.90
43151;DHT22;28755;51.478;5.702;2024-03-22T14:25:16;11.70;99.90
43151;DHT22;28755;51.478;5.702;2024-03-22T14:27:42;11.90;99.90
43151;DHT22;28755;51.478;5.702;2024-03-22T14:30:11;11.90;99.90
43151;DHT22;28755;51.478;5.702;2024-03-22T14:32:38;11.80;99.90
43151;DHT22;28755;51.478;5.702;2024-03-22T14:35:04;11.90;99.90
43151;DHT22;28755;51.478;5.702;2024-03-22T14:37:31;11.90;99.90
43151;DHT22;28755;51.478;5.702;2024-03-22T14:39:56;11.90;99.90
43151;DHT22;28755;51.478;5.702;2024-03-22T14:42:22;12.00;99.90
43151;DHT22;28755;51.478;5.702;2024-03-22T14:44:47;12.00;99.90
43151;DHT22;28755;51.478;5.702;2024-03-22T14:47:13;11.90;99.90
43151;DHT22;28755;51.478;5.702;2024-03-22T14:49:39;11.80;99.90
43151;DHT22;28755;51.478;5.702;2024-03-22T14:52:06;11.90;99.90
43151;DHT22;28755;51.478;5.702;2024-03-22T14:54:31;11.70;99.90
43151;DHT22;28755;51.478;5.702;2024-03-22T14:56:57;11.80;99.90
43151;DHT22;28755;51.478;5.702;2024-03-22T14:59:22;11.60;99.90
43151;DHT22;28755;51.478;5.702;2024-03-22T15:01:48;11.50;99.90
43151;DHT22;28755;51.478;5.702;2024-03-22T15:04:14;11.70;99.90
43151;DHT22;28755;51.478;5.702;2024-03-22T15:06:39;11.70;99.90
43151;DHT22;28755;51.478;5.702;2024-03-22T15:09:05;11.60;99.90
43151;DHT22;28755;51.478;5.702;2024-03-22T15:11:36;11.70;99.90
43151;DHT22;28755;51.478;5.702;2024-03-22T15:14:02;11.80;99.90
43151;DHT22;28755;51.478;5.702;2024-03-22T15:16:28;11.80;99.90
43151;DHT22;28755;51.478;5.702;2024-03-22T15:18:54;11.70;99.90
43151;DHT22;28755;51.478;5.702;2024-03-22T15:21:19;11.70;99.90
43151;DHT22;28755;51.478;5.702;2024-03-22T15:23:46;11.60;99.90
43151;DHT22;28755;51.478;5.702;2024-03-22T15:26:11;11.60;99.90